sensor_id;sensor_type;location;lat;lon;timestamp;pressure;altitude;pressure_sealevel;temperature;humidity
55755;BME280;41674;52.290;-1.474;2023-02-08T00:00:21;103162.95;;;0.43;64.90
55755;BME280;41674;52.290;-1.474;2023-02-08T00:02:49;103157.45;;;0.68;65.37
55755;BME280;41674;52.290;-1.474;2023-02-08T00:05:18;103158.75;;;1.07;64.70
55755;BME280;41674;52.290;-1.474;2023-02-08T00:07:48;103161.04;;;0.87;64.27
55755;BME280;41674;52.290;-1.474;2023-02-08T00:10:17;103158.78;;;0.19;65.65
55755;BME280;41674;52.290;-1.474;2023-02-08T00:12:46;103154.08;;;0.64;64.89
55755;BME280;41674;52.290;-1.474;2023-02-08T00:15:16;103149.89;;;0.67;65.22
55755;BME280;41674;52.290;-1.474;2023-02-08T00:17:45;103146.31;;;0.92;63.48
55755;BME280;41674;52.290;-1.474;2023-02-08T00:20:14;103150.73;;;0.84;63.79
55755;BME280;41674;52.290;-1.474;2023-02-08T00:22:44;103150.46;;;0.53;64.73
55755;BME280;41674;52.290;-1.474;2023-02-08T00:25:13;103154.52;;;0.90;63.93
55755;BME280;41674;52.290;-1.474;2023-02-08T00:27:42;103156.02;;;0.38;64.00
55755;BME280;41674;52.290;-1.474;2023-02-08T00:30:11;103158.62;;;0.14;64.64
55755;BME280;41674;52.290;-1.474;2023-02-08T00:32:41;103160.99;;;0.45;64.01
55755;BME280;41674;52.290;-1.474;2023-02-08T00:35:11;103160.83;;;-0.15;65.05
55755;BME280;41674;52.290;-1.474;2023-02-08T00:37:40;103157.51;;;0.28;64.70
55755;BME280;41674;52.290;-1.474;2023-02-08T00:40:11;103157.99;;;-0.28;66.25
55755;BME280;41674;52.290;-1.474;2023-02-08T00:42:39;103154.35;;;0.50;64.92
55755;BME280;41674;52.290;-1.474;2023-02-08T00:45:09;103151.82;;;-0.17;65.68
55755;BME280;41674;52.290;-1.474;2023-02-08T00:47:38;103151.54;;;0.06;63.93
55755;BME280;41674;52.290;-1.474;2023-02-08T00:50:10;103144.68;;;0.64;62.26
55755;BME280;41674;52.290;-1.474;2023-02-08T00:52:37;103139.98;;;0.66;61.51
55755;BME280;41674;52.290;-1.474;2023-02-08T00:55:07;103139.35;;;0.67;61.49
55755;BME280;41674;52.290;-1.474;2023-02-08T00:57:36;103137.98;;;0.91;59.77
55755;BME280;41674;52.290;-1.474;2023-02-08T01:00:07;103134.14;;;0.84;60.44
55755;BME280;41674;52.290;-1.474;2023-02-08T01:02:37;103128.38;;;0.68;60.27
55755;BME280;41674;52.290;-1.474;2023-02-08T01:05:05;103123.24;;;1.21;59.49
55755;BME280;41674;52.290;-1.474;2023-02-08T01:07:35;103119.84;;;1.01;59.04
55755;BME280;41674;52.290;-1.474;2023-02-08T01:10:03;103118.30;;;1.25;58.93
55755;BME280;41674;52.290;-1.474;2023-02-08T01:12:32;103109.66;;;0.86;58.53
55755;BME280;41674;52.290;-1.474;2023-02-08T01:15:02;103107.61;;;0.89;59.21
55755;BME280;41674;52.290;-1.474;2023-02-08T01:17:31;103109.07;;;0.34;59.61
55755;BME280;41674;52.290;-1.474;2023-02-08T01:20:00;103110.59;;;0.10;60.42
55755;BME280;41674;52.290;-1.474;2023-02-08T01:22:30;103109.72;;;0.80;60.33
55755;BME280;41674;52.290;-1.474;2023-02-08T01:24:59;103101.54;;;-0.17;61.84
55755;BME280;41674;52.290;-1.474;2023-02-08T01:27:28;103098.20;;;0.22;61.63
55755;BME280;41674;52.290;-1.474;2023-02-08T01:29:58;103092.97;;;-0.55;63.38
55755;BME280;41674;52.290;-1.474;2023-02-08T01:32:27;103096.78;;;-0.13;62.78
55755;BME280;41674;52.290;-1.474;2023-02-08T01:34:56;103094.05;;;-0.94;64.23
55755;BME280;41674;52.290;-1.474;2023-02-08T01:37:25;103094.33;;;-1.08;64.15
55755;BME280;41674;52.290;-1.474;2023-02-08T01:39:55;103097.16;;;-1.12;64.76
55755;BME280;41674;52.290;-1.474;2023-02-08T01:42:24;103090.08;;;-0.75;64.94
55755;BME280;41674;52.290;-1.474;2023-02-08T01:47:22;103082.04;;;-0.47;63.14
55755;BME280;41674;52.290;-1.474;2023-02-08T01:49:51;103081.66;;;-1.29;64.90
55755;BME280;41674;52.290;-1.474;2023-02-08T01:52:23;103081.47;;;-0.92;62.43
55755;BME280;41674;52.290;-1.474;2023-02-08T01:54:52;103080.81;;;-1.11;63.46
55755;BME280;41674;52.290;-1.474;2023-02-08T01:57:20;103076.27;;;-1.43;65.59
55755;BME280;41674;52.290;-1.474;2023-02-08T01:59:51;103075.91;;;-1.08;64.34
55755;BME280;41674;52.290;-1.474;2023-02-08T02:02:20;103073.11;;;-1.44;65.31
55755;BME280;41674;52.290;-1.474;2023-02-08T02:04:49;103073.25;;;-1.54;66.34
55755;BME280;41674;52.290;-1.474;2023-02-08T02:07:19;103074.34;;;-1.14;65.36
55755;BME280;41674;52.290;-1.474;2023-02-08T02:09:51;103066.19;;;-0.98;64.79
55755;BME280;41674;52.290;-1.474;2023-02-08T02:12:17;103069.08;;;-1.05;64.86
55755;BME280;41674;52.290;-1.474;2023-02-08T02:14:46;103067.78;;;-1.13;64.73
55755;BME280;41674;52.290;-1.474;2023-02-08T02:17:17;103067.63;;;-1.61;64.39
55755;BME280;41674;52.290;-1.474;2023-02-08T02:19:53;103064.81;;;-1.21;63.34
55755;BME280;41674;52.290;-1.474;2023-02-08T02:22:25;103063.05;;;-1.85;66.52
55755;BME280;41674;52.290;-1.474;2023-02-08T02:25:01;103059.94;;;-1.60;66.50
55755;BME280;41674;52.290;-1.474;2023-02-08T02:27:25;103056.86;;;-1.31;64.66
55755;BME280;41674;52.290;-1.474;2023-02-08T02:32:21;103061.48;;;-1.76;65.13
55755;BME280;41674;52.290;-1.474;2023-02-08T02:34:45;103068.34;;;-1.75;65.72
55755;BME280;41674;52.290;-1.474;2023-02-08T02:37:21;103074.14;;;-1.47;66.18
55755;BME280;41674;52.290;-1.474;2023-02-08T02:39:45;103073.38;;;-1.57;65.47
55755;BME280;41674;52.290;-1.474;2023-02-08T02:42:14;103070.84;;;-1.36;65.21
55755;BME280;41674;52.290;-1.474;2023-02-08T02:44:45;103074.75;;;-2.69;68.63
55755;BME280;41674;52.290;-1.474;2023-02-08T02:47:15;103074.17;;;-2.65;68.68
55755;BME280;41674;52.290;-1.474;2023-02-08T02:49:45;103069.97;;;-1.14;65.50
55755;BME280;41674;52.290;-1.474;2023-02-08T02:52:11;103070.74;;;-1.27;64.17
55755;BME280;41674;52.290;-1.474;2023-02-08T02:54:41;103073.05;;;-1.34;64.37
55755;BME280;41674;52.290;-1.474;2023-02-08T02:57:09;103072.13;;;-1.47;63.53
55755;BME280;41674;52.290;-1.474;2023-02-08T02:59:37;103077.53;;;-2.32;65.48
55755;BME280;41674;52.290;-1.474;2023-02-08T03:02:05;103078.01;;;-1.48;64.51
55755;BME280;41674;52.290;-1.474;2023-02-08T03:04:46;103077.47;;;-1.80;64.89
55755;BME280;41674;52.290;-1.474;2023-02-08T03:07:11;103075.40;;;-1.80;65.15
55755;BME280;41674;52.290;-1.474;2023-02-08T03:09:47;103067.76;;;-1.67;64.83
55755;BME280;41674;52.290;-1.474;2023-02-08T03:12:12;103061.35;;;-1.46;63.61
55755;BME280;41674;52.290;-1.474;2023-02-08T03:14:39;103056.73;;;-1.38;63.64
55755;BME280;41674;52.290;-1.474;2023-02-08T03:17:13;103056.90;;;-1.57;63.28
55755;BME280;41674;52.290;-1.474;2023-02-08T03:19:35;103049.97;;;-1.10;62.68
55755;BME280;41674;52.290;-1.474;2023-02-08T03:22:05;103047.72;;;-1.56;63.34
55755;BME280;41674;52.290;-1.474;2023-02-08T03:24:37;103041.41;;;-1.75;64.23
55755;BME280;41674;52.290;-1.474;2023-02-08T03:27:03;103040.23;;;-1.04;63.64
55755;BME280;41674;52.290;-1.474;2023-02-08T03:29:39;103037.11;;;-1.74;64.12
55755;BME280;41674;52.290;-1.474;2023-02-08T03:32:01;103028.32;;;-1.39;63.26
55755;BME280;41674;52.290;-1.474;2023-02-08T03:34:34;103016.85;;;-1.20;62.22
55755;BME280;41674;52.290;-1.474;2023-02-08T03:37:02;103010.28;;;-1.17;62.73
55755;BME280;41674;52.290;-1.474;2023-02-08T03:39:29;103007.87;;;-1.31;62.53
55755;BME280;41674;52.290;-1.474;2023-02-08T03:41:59;103005.58;;;-1.42;62.30
55755;BME280;41674;52.290;-1.474;2023-02-08T03:44:29;103011.48;;;-2.08;63.55
55755;BME280;41674;52.290;-1.474;2023-02-08T03:46:57;103010.61;;;-1.62;63.15
55755;BME280;41674;52.290;-1.474;2023-02-08T03:49:30;103018.08;;;-2.07;63.45
55755;BME280;41674;52.290;-1.474;2023-02-08T03:51:58;103020.72;;;-2.01;62.31
55755;BME280;41674;52.290;-1.474;2023-02-08T03:54:26;103030.41;;;-2.12;64.17
55755;BME280;41674;52.290;-1.474;2023-02-08T03:56:58;103036.87;;;-1.87;63.73
55755;BME280;41674;52.290;-1.474;2023-02-08T03:59:26;103031.34;;;-1.77;63.74
55755;BME280;41674;52.290;-1.474;2023-02-08T04:01:56;103023.95;;;-1.88;63.70
55755;BME280;41674;52.290;-1.474;2023-02-08T04:04:23;103017.60;;;-1.88;63.48
55755;BME280;41674;52.290;-1.474;2023-02-08T04:06:51;103014.71;;;-1.90;63.90
55755;BME280;41674;52.290;-1.474;2023-02-08T04:09:21;103017.05;;;-1.65;64.48
55755;BME280;41674;52.290;-1.474;2023-02-08T04:11:50;103013.95;;;-1.43;63.54
55755;BME280;41674;52.290;-1.474;2023-02-08T04:14:20;103012.98;;;-1.96;63.74
55755;BME280;41674;52.290;-1.474;2023-02-08T04:16:49;103012.45;;;-1.76;64.09
55755;BME280;41674;52.290;-1.474;2023-02-08T04:19:19;103015.65;;;-1.86;64.37
55755;BME280;41674;52.290;-1.474;2023-02-08T04:21:49;103008.00;;;-1.51;63.66
55755;BME280;41674;52.290;-1.474;2023-02-08T04:24:17;103005.50;;;-1.51;62.48
55755;BME280;41674;52.290;-1.474;2023-02-08T04:26:47;102997.13;;;-1.66;63.25
55755;BME280;41674;52.290;-1.474;2023-02-08T04:29:16;102992.92;;;-1.70;63.34
55755;BME280;41674;52.290;-1.474;2023-02-08T04:31:46;102992.45;;;-1.70;63.54
55755;BME280;41674;52.290;-1.474;2023-02-08T04:34:15;102995.22;;;-2.34;64.80
55755;BME280;41674;52.290;-1.474;2023-02-08T04:36:45;102990.30;;;-2.75;66.10
55755;BME280;41674;52.290;-1.474;2023-02-08T04:39:14;102981.89;;;-1.65;63.19
55755;BME280;41674;52.290;-1.474;2023-02-08T04:41:43;102980.40;;;-1.69;62.80
55755;BME280;41674;52.290;-1.474;2023-02-08T04:44:13;102981.23;;;-2.15;63.17
55755;BME280;41674;52.290;-1.474;2023-02-08T04:46:42;102985.04;;;-1.80;64.37
55755;BME280;41674;52.290;-1.474;2023-02-08T04:49:11;102987.61;;;-1.82;62.92
55755;BME280;41674;52.290;-1.474;2023-02-08T04:51:41;102993.47;;;-1.93;63.41
55755;BME280;41674;52.290;-1.474;2023-02-08T04:54:10;102985.12;;;-2.02;62.68
55755;BME280;41674;52.290;-1.474;2023-02-08T04:56:40;102985.07;;;-1.54;62.68
55755;BME280;41674;52.290;-1.474;2023-02-08T04:59:09;102982.70;;;-1.76;63.18
55755;BME280;41674;52.290;-1.474;2023-02-08T05:01:39;102981.13;;;-1.70;63.65
55755;BME280;41674;52.290;-1.474;2023-02-08T05:04:09;102979.89;;;-1.96;63.82
55755;BME280;41674;52.290;-1.474;2023-02-08T05:06:38;102978.42;;;-1.79;63.42
55755;BME280;41674;52.290;-1.474;2023-02-08T05:09:08;102976.79;;;-1.93;63.00
55755;BME280;41674;52.290;-1.474;2023-02-08T05:11:37;102978.83;;;-2.22;64.22
55755;BME280;41674;52.290;-1.474;2023-02-08T05:14:07;102972.62;;;-2.03;63.65
55755;BME280;41674;52.290;-1.474;2023-02-08T05:16:36;102971.24;;;-1.79;63.55
55755;BME280;41674;52.290;-1.474;2023-02-08T05:19:06;102973.01;;;-1.82;63.61
55755;BME280;41674;52.290;-1.474;2023-02-08T05:21:35;102972.63;;;-2.06;63.36
55755;BME280;41674;52.290;-1.474;2023-02-08T05:24:05;102970.64;;;-2.04;61.96
55755;BME280;41674;52.290;-1.474;2023-02-08T05:26:34;102975.04;;;-2.27;62.98
55755;BME280;41674;52.290;-1.474;2023-02-08T05:29:04;102971.52;;;-2.32;63.98
55755;BME280;41674;52.290;-1.474;2023-02-08T05:31:34;102967.63;;;-2.34;63.99
55755;BME280;41674;52.290;-1.474;2023-02-08T05:34:03;102969.97;;;-2.14;63.18
55755;BME280;41674;52.290;-1.474;2023-02-08T05:36:33;102972.37;;;-2.17;62.79
55755;BME280;41674;52.290;-1.474;2023-02-08T05:39:03;102965.61;;;-2.80;64.07
55755;BME280;41674;52.290;-1.474;2023-02-08T05:41:32;102958.67;;;-2.14;62.73
55755;BME280;41674;52.290;-1.474;2023-02-08T05:44:02;102960.03;;;-2.84;64.53
55755;BME280;41674;52.290;-1.474;2023-02-08T05:46:31;102954.45;;;-1.84;63.10
55755;BME280;41674;52.290;-1.474;2023-02-08T05:49:00;102956.77;;;-2.61;64.30
55755;BME280;41674;52.290;-1.474;2023-02-08T05:51:30;102958.84;;;-2.50;62.60
55755;BME280;41674;52.290;-1.474;2023-02-08T05:54:00;102953.92;;;-2.38;62.93
55755;BME280;41674;52.290;-1.474;2023-02-08T05:56:29;102948.21;;;-2.34;63.67
55755;BME280;41674;52.290;-1.474;2023-02-08T05:58:59;102939.12;;;-2.41;63.06
55755;BME280;41674;52.290;-1.474;2023-02-08T06:01:28;102935.03;;;-2.10;62.46
55755;BME280;41674;52.290;-1.474;2023-02-08T06:03:58;102932.10;;;-4.28;68.87
55755;BME280;41674;52.290;-1.474;2023-02-08T06:06:27;102924.19;;;-3.11;67.12
55755;BME280;41674;52.290;-1.474;2023-02-08T06:08:56;102928.19;;;-2.82;65.73
55755;BME280;41674;52.290;-1.474;2023-02-08T06:11:26;102928.00;;;-2.63;64.86
55755;BME280;41674;52.290;-1.474;2023-02-08T06:13:55;102927.95;;;-3.24;65.59
55755;BME280;41674;52.290;-1.474;2023-02-08T06:16:24;102921.96;;;-2.97;64.28
55755;BME280;41674;52.290;-1.474;2023-02-08T06:18:54;102918.94;;;-2.48;64.11
55755;BME280;41674;52.290;-1.474;2023-02-08T06:21:23;102914.63;;;-2.88;65.14
55755;BME280;41674;52.290;-1.474;2023-02-08T06:23:53;102915.10;;;-2.95;64.52
55755;BME280;41674;52.290;-1.474;2023-02-08T06:26:22;102914.17;;;-3.01;64.26
55755;BME280;41674;52.290;-1.474;2023-02-08T06:28:53;102914.33;;;-3.96;65.72
55755;BME280;41674;52.290;-1.474;2023-02-08T06:31:22;102910.24;;;-3.30;65.19
55755;BME280;41674;52.290;-1.474;2023-02-08T06:33:51;102908.68;;;-2.99;64.10
55755;BME280;41674;52.290;-1.474;2023-02-08T06:36:20;102901.77;;;-2.76;63.50
55755;BME280;41674;52.290;-1.474;2023-02-08T06:38:50;102905.47;;;-2.42;63.37
55755;BME280;41674;52.290;-1.474;2023-02-08T06:41:19;102910.52;;;-2.65;63.67
55755;BME280;41674;52.290;-1.474;2023-02-08T06:43:49;102915.86;;;-3.01;63.75
55755;BME280;41674;52.290;-1.474;2023-02-08T06:46:18;102917.68;;;-2.55;63.17
55755;BME280;41674;52.290;-1.474;2023-02-08T06:48:48;102917.77;;;-2.49;62.96
55755;BME280;41674;52.290;-1.474;2023-02-08T06:51:17;102918.52;;;-2.75;63.04
55755;BME280;41674;52.290;-1.474;2023-02-08T06:53:46;102925.09;;;-2.24;63.04
55755;BME280;41674;52.290;-1.474;2023-02-08T06:56:16;102926.19;;;-2.43;63.65
55755;BME280;41674;52.290;-1.474;2023-02-08T06:58:45;102930.17;;;-2.53;63.62
55755;BME280;41674;52.290;-1.474;2023-02-08T07:01:15;102935.71;;;-2.44;62.84
55755;BME280;41674;52.290;-1.474;2023-02-08T07:03:44;102934.55;;;-2.78;63.25
55755;BME280;41674;52.290;-1.474;2023-02-08T07:06:16;102932.52;;;-2.68;63.44
55755;BME280;41674;52.290;-1.474;2023-02-08T07:08:44;102934.61;;;-2.21;63.15
55755;BME280;41674;52.290;-1.474;2023-02-08T07:11:16;102936.01;;;-2.44;63.31
55755;BME280;41674;52.290;-1.474;2023-02-08T07:13:46;102933.90;;;-2.33;63.96
55755;BME280;41674;52.290;-1.474;2023-02-08T07:16:12;102927.66;;;-2.26;64.36
55755;BME280;41674;52.290;-1.474;2023-02-08T07:18:42;102926.47;;;-2.08;63.22
55755;BME280;41674;52.290;-1.474;2023-02-08T07:21:11;102927.49;;;-2.31;63.61
55755;BME280;41674;52.290;-1.474;2023-02-08T07:23:41;102930.05;;;-2.17;64.23
55755;BME280;41674;52.290;-1.474;2023-02-08T07:26:12;102932.48;;;-2.48;64.23
55755;BME280;41674;52.290;-1.474;2023-02-08T07:28:41;102935.54;;;-2.34;63.26
55755;BME280;41674;52.290;-1.474;2023-02-08T07:31:12;102930.87;;;-2.15;62.98
55755;BME280;41674;52.290;-1.474;2023-02-08T07:33:40;102936.46;;;-2.47;63.59
55755;BME280;41674;52.290;-1.474;2023-02-08T07:36:09;102936.68;;;-2.78;63.67
55755;BME280;41674;52.290;-1.474;2023-02-08T07:38:38;102936.94;;;-2.64;63.16
55755;BME280;41674;52.290;-1.474;2023-02-08T07:41:10;102937.85;;;-3.02;63.83
55755;BME280;41674;52.290;-1.474;2023-02-08T07:43:38;102940.95;;;-2.72;62.91
55755;BME280;41674;52.290;-1.474;2023-02-08T07:46:08;102945.48;;;-2.58;63.50
55755;BME280;41674;52.290;-1.474;2023-02-08T07:48:37;102951.46;;;-2.72;62.90
55755;BME280;41674;52.290;-1.474;2023-02-08T07:51:07;102952.76;;;-2.36;62.62
55755;BME280;41674;52.290;-1.474;2023-02-08T07:53:36;102960.54;;;-3.18;63.86
55755;BME280;41674;52.290;-1.474;2023-02-08T07:56:05;102965.90;;;-2.68;62.90
55755;BME280;41674;52.290;-1.474;2023-02-08T07:58:34;102965.46;;;-2.93;63.61
55755;BME280;41674;52.290;-1.474;2023-02-08T08:01:04;102962.23;;;-2.58;62.64
55755;BME280;41674;52.290;-1.474;2023-02-08T08:03:33;102960.16;;;-2.69;63.98
55755;BME280;41674;52.290;-1.474;2023-02-08T08:06:03;102960.39;;;-2.74;63.70
55755;BME280;41674;52.290;-1.474;2023-02-08T08:08:33;102963.19;;;-2.68;64.48
55755;BME280;41674;52.290;-1.474;2023-02-08T08:11:02;102964.75;;;-2.28;64.64
55755;BME280;41674;52.290;-1.474;2023-02-08T08:13:31;102959.95;;;-2.15;64.80
55755;BME280;41674;52.290;-1.474;2023-02-08T08:16:00;102956.92;;;-2.40;64.62
55755;BME280;41674;52.290;-1.474;2023-02-08T08:18:30;102958.28;;;-2.19;64.96
55755;BME280;41674;52.290;-1.474;2023-02-08T08:20:59;102960.96;;;-2.57;65.49
55755;BME280;41674;52.290;-1.474;2023-02-08T08:23:29;102966.73;;;-2.44;65.17
55755;BME280;41674;52.290;-1.474;2023-02-08T08:25:59;102968.91;;;-2.47;65.44
55755;BME280;41674;52.290;-1.474;2023-02-08T08:28:28;102972.13;;;-2.26;64.75
55755;BME280;41674;52.290;-1.474;2023-02-08T08:30:58;102977.79;;;-2.31;64.74
55755;BME280;41674;52.290;-1.474;2023-02-08T08:33:28;102974.24;;;-1.89;64.69
55755;BME280;41674;52.290;-1.474;2023-02-08T08:35:57;102974.82;;;-2.17;65.28
55755;BME280;41674;52.290;-1.474;2023-02-08T08:38:26;102977.36;;;-2.24;65.62
55755;BME280;41674;52.290;-1.474;2023-02-08T08:40:55;102971.66;;;-2.14;65.49
55755;BME280;41674;52.290;-1.474;2023-02-08T08:43:24;102974.06;;;-1.87;64.69
55755;BME280;41674;52.290;-1.474;2023-02-08T08:45:54;102977.65;;;-2.20;64.69
55755;BME280;41674;52.290;-1.474;2023-02-08T08:48:23;102980.53;;;-1.59;64.91
55755;BME280;41674;52.290;-1.474;2023-02-08T08:50:53;102979.40;;;-1.52;64.88
55755;BME280;41674;52.290;-1.474;2023-02-08T08:53:22;102981.46;;;-1.65;64.60
55755;BME280;41674;52.290;-1.474;2023-02-08T08:55:52;102980.23;;;-1.42;64.93
55755;BME280;41674;52.290;-1.474;2023-02-08T08:58:21;102984.92;;;-1.36;65.05
55755;BME280;41674;52.290;-1.474;2023-02-08T09:00:51;102981.30;;;-1.29;65.53
55755;BME280;41674;52.290;-1.474;2023-02-08T09:03:20;102976.90;;;-1.43;65.80
55755;BME280;41674;52.290;-1.474;2023-02-08T09:05:50;102979.08;;;-1.41;66.24
55755;BME280;41674;52.290;-1.474;2023-02-08T09:08:19;102982.59;;;-1.12;66.27
55755;BME280;41674;52.290;-1.474;2023-02-08T09:10:48;102988.07;;;-0.97;66.18
55755;BME280;41674;52.290;-1.474;2023-02-08T09:13:17;102990.60;;;-1.04;66.81
55755;BME280;41674;52.290;-1.474;2023-02-08T09:15:47;102986.60;;;-1.24;66.64
55755;BME280;41674;52.290;-1.474;2023-02-08T09:18:17;102982.02;;;-1.01;67.79
55755;BME280;41674;52.290;-1.474;2023-02-08T09:20:46;102979.29;;;-1.03;67.94
55755;BME280;41674;52.290;-1.474;2023-02-08T09:23:15;102976.22;;;-0.82;67.99
55755;BME280;41674;52.290;-1.474;2023-02-08T09:25:45;102972.52;;;-0.66;68.23
55755;BME280;41674;52.290;-1.474;2023-02-08T09:28:15;102963.27;;;-1.42;71.30
55755;BME280;41674;52.290;-1.474;2023-02-08T09:30:44;102958.85;;;-0.65;71.11
55755;BME280;41674;52.290;-1.474;2023-02-08T09:33:13;102946.38;;;-0.64;71.56
55755;BME280;41674;52.290;-1.474;2023-02-08T09:35:43;102944.75;;;-0.61;74.27
55755;BME280;41674;52.290;-1.474;2023-02-08T09:38:12;102942.65;;;-0.62;79.91
55755;BME280;41674;52.290;-1.474;2023-02-08T09:40:47;102939.70;;;-0.31;81.05
55755;BME280;41674;52.290;-1.474;2023-02-08T09:43:16;102935.02;;;-0.11;82.12
55755;BME280;41674;52.290;-1.474;2023-02-08T09:45:47;102928.33;;;-0.52;84.45
55755;BME280;41674;52.290;-1.474;2023-02-08T09:48:17;102919.88;;;-0.18;84.53
55755;BME280;41674;52.290;-1.474;2023-02-08T09:50:43;102909.93;;;0.40;81.76
55755;BME280;41674;52.290;-1.474;2023-02-08T09:53:14;102901.18;;;0.81;81.32
55755;BME280;41674;52.290;-1.474;2023-02-08T09:55:42;102902.26;;;1.36;80.74
55755;BME280;41674;52.290;-1.474;2023-02-08T09:58:17;102898.30;;;0.80;84.25
55755;BME280;41674;52.290;-1.474;2023-02-08T10:00:41;102893.45;;;0.82;84.15
55755;BME280;41674;52.290;-1.474;2023-02-08T10:03:18;102889.13;;;1.12;83.71
55755;BME280;41674;52.290;-1.474;2023-02-08T10:05:37;102877.75;;;1.40;84.13
55755;BME280;41674;52.290;-1.474;2023-02-08T10:08:08;102870.88;;;1.48;84.56
55755;BME280;41674;52.290;-1.474;2023-02-08T10:10:42;102862.42;;;1.65;84.83
55755;BME280;41674;52.290;-1.474;2023-02-08T10:13:15;102859.49;;;1.42;89.62
55755;BME280;41674;52.290;-1.474;2023-02-08T10:15:40;102857.11;;;0.91;92.51
55755;BME280;41674;52.290;-1.474;2023-02-08T10:18:19;102846.15;;;0.48;97.78
55755;BME280;41674;52.290;-1.474;2023-02-08T10:20:45;102837.46;;;0.64;100.00
55755;BME280;41674;52.290;-1.474;2023-02-08T10:23:16;102832.38;;;0.65;100.00
55755;BME280;41674;52.290;-1.474;2023-02-08T10:25:45;102829.74;;;0.56;100.00
55755;BME280;41674;52.290;-1.474;2023-02-08T10:28:20;102822.91;;;0.63;100.00
55755;BME280;41674;52.290;-1.474;2023-02-08T10:30:39;102814.92;;;1.26;98.40
55755;BME280;41674;52.290;-1.474;2023-02-08T10:33:08;102811.01;;;1.62;97.66
55755;BME280;41674;52.290;-1.474;2023-02-08T10:35:34;102809.08;;;1.17;97.51
55755;BME280;41674;52.290;-1.474;2023-02-08T10:40:37;102813.41;;;0.88;97.41
55755;BME280;41674;52.290;-1.474;2023-02-08T10:43:11;102815.70;;;1.26;97.57
55755;BME280;41674;52.290;-1.474;2023-02-08T10:45:34;102821.85;;;1.44;95.40
55755;BME280;41674;52.290;-1.474;2023-02-08T10:48:04;102823.09;;;1.28;95.83
55755;BME280;41674;52.290;-1.474;2023-02-08T10:50:33;102826.94;;;1.06;97.92
55755;BME280;41674;52.290;-1.474;2023-02-08T10:52:58;102819.41;;;1.49;95.44
55755;BME280;41674;52.290;-1.474;2023-02-08T10:55:29;102812.54;;;1.00;96.77
55755;BME280;41674;52.290;-1.474;2023-02-08T10:57:59;102812.05;;;1.74;95.26
55755;BME280;41674;52.290;-1.474;2023-02-08T11:00:29;102815.46;;;1.03;98.75
55755;BME280;41674;52.290;-1.474;2023-02-08T11:02:59;102814.70;;;1.46;97.50
55755;BME280;41674;52.290;-1.474;2023-02-08T11:05:32;102815.64;;;1.83;95.09
55755;BME280;41674;52.290;-1.474;2023-02-08T11:08:06;102811.39;;;1.68;96.18
55755;BME280;41674;52.290;-1.474;2023-02-08T11:10:25;102806.32;;;2.00;94.24
55755;BME280;41674;52.290;-1.474;2023-02-08T11:12:55;102810.56;;;1.53;95.20
55755;BME280;41674;52.290;-1.474;2023-02-08T11:15:26;102813.52;;;1.89;94.90
55755;BME280;41674;52.290;-1.474;2023-02-08T11:17:56;102812.22;;;1.40;96.47
55755;BME280;41674;52.290;-1.474;2023-02-08T11:20:26;102808.44;;;2.23;91.66
55755;BME280;41674;52.290;-1.474;2023-02-08T11:22:52;102805.81;;;2.72;90.85
55755;BME280;41674;52.290;-1.474;2023-02-08T11:25:33;102802.39;;;3.01;88.72
55755;BME280;41674;52.290;-1.474;2023-02-08T11:27:50;102803.84;;;2.54;90.88
55755;BME280;41674;52.290;-1.474;2023-02-08T11:30:22;102805.82;;;2.57;91.11
55755;BME280;41674;52.290;-1.474;2023-02-08T11:35:21;102806.83;;;2.33;91.56
55755;BME280;41674;52.290;-1.474;2023-02-08T11:37:49;102804.69;;;2.28;92.48
55755;BME280;41674;52.290;-1.474;2023-02-08T11:40:20;102808.75;;;3.05;90.82
55755;BME280;41674;52.290;-1.474;2023-02-08T11:42:47;102805.63;;;3.11;88.01
55755;BME280;41674;52.290;-1.474;2023-02-08T11:45:21;102789.39;;;3.95;84.49
55755;BME280;41674;52.290;-1.474;2023-02-08T11:47:46;102790.82;;;3.98;82.85
55755;BME280;41674;52.290;-1.474;2023-02-08T11:50:22;102794.09;;;3.67;83.73
55755;BME280;41674;52.290;-1.474;2023-02-08T11:52:50;102788.07;;;3.74;83.34
55755;BME280;41674;52.290;-1.474;2023-02-08T11:55:22;102791.02;;;3.68;83.91
55755;BME280;41674;52.290;-1.474;2023-02-08T11:57:51;102789.96;;;3.77;81.56
55755;BME280;41674;52.290;-1.474;2023-02-08T12:00:19;102788.10;;;4.44;79.43
55755;BME280;41674;52.290;-1.474;2023-02-08T12:02:43;102774.58;;;5.35;75.43
55755;BME280;41674;52.290;-1.474;2023-02-08T12:05:13;102771.34;;;5.06;74.59
55755;BME280;41674;52.290;-1.474;2023-02-08T12:07:52;102765.74;;;5.15;73.18
55755;BME280;41674;52.290;-1.474;2023-02-08T12:10:25;102762.73;;;5.40;73.11
55755;BME280;41674;52.290;-1.474;2023-02-08T12:12:51;102761.35;;;5.01;72.18
55755;BME280;41674;52.290;-1.474;2023-02-08T12:22:50;102740.06;;;6.61;67.82
55755;BME280;41674;52.290;-1.474;2023-02-08T12:27:47;102727.86;;;5.76;68.68
55755;BME280;41674;52.290;-1.474;2023-02-08T12:37:45;102694.60;;;7.39;63.13
55755;BME280;41674;52.290;-1.474;2023-02-08T12:50:13;102679.05;;;7.87;61.25
55755;BME280;41674;52.290;-1.474;2023-02-08T12:52:38;102671.33;;;7.57;61.25
55755;BME280;41674;52.290;-1.474;2023-02-08T12:57:34;102661.61;;;8.97;59.83
55755;BME280;41674;52.290;-1.474;2023-02-08T13:00:07;102650.94;;;8.91;57.80
55755;BME280;41674;52.290;-1.474;2023-02-08T13:02:39;102650.13;;;9.26;55.67
55755;BME280;41674;52.290;-1.474;2023-02-08T13:05:03;102648.24;;;10.12;55.18
55755;BME280;41674;52.290;-1.474;2023-02-08T13:07:34;102643.69;;;11.15;53.87
55755;BME280;41674;52.290;-1.474;2023-02-08T13:10:07;102635.89;;;10.84;51.01
55755;BME280;41674;52.290;-1.474;2023-02-08T13:12:33;102639.18;;;10.92;48.49
55755;BME280;41674;52.290;-1.474;2023-02-08T13:14:59;102644.25;;;9.98;51.18
55755;BME280;41674;52.290;-1.474;2023-02-08T13:17:27;102631.67;;;10.39;53.49
55755;BME280;41674;52.290;-1.474;2023-02-08T13:19:59;102624.69;;;10.71;49.82
55755;BME280;41674;52.290;-1.474;2023-02-08T13:22:24;102631.08;;;10.64;49.45
55755;BME280;41674;52.290;-1.474;2023-02-08T13:24:55;102628.02;;;9.30;52.16
55755;BME280;41674;52.290;-1.474;2023-02-08T13:27:22;102624.08;;;9.82;51.54
55755;BME280;41674;52.290;-1.474;2023-02-08T13:29:51;102619.20;;;9.68;51.64
55755;BME280;41674;52.290;-1.474;2023-02-08T13:32:24;102616.76;;;9.57;52.30